sensor_id;sensor_type;location;lat;lon;timestamp;P1;durP1;ratioP1;P2;durP2;ratioP2
14241;SDS011;7205;50.864;12.766;2022-12-18T00:02:07;20.43;;;11.57;;
14241;SDS011;7205;50.864;12.766;2022-12-18T00:04:36;15.83;;;9.77;;
14241;SDS011;7205;50.864;12.766;2022-12-18T00:07:02;16.43;;;8.80;;
14241;SDS011;7205;50.864;12.766;2022-12-18T00:09:29;19.10;;;9.87;;
14241;SDS011;7205;50.864;12.766;2022-12-18T00:11:56;16.10;;;9.10;;
14241;SDS011;7205;50.864;12.766;2022-12-18T00:14:24;16.67;;;10.47;;
14241;SDS011;7205;50.864;12.766;2022-12-18T00:16:51;19.60;;;10.50;;
14241;SDS011;7205;50.864;12.766;2022-12-18T00:19:18;21.80;;;12.33;;
14241;SDS011;7205;50.864;12.766;2022-12-18T00:21:45;19.43;;;11.43;;
14241;SDS011;7205;50.864;12.766;2022-12-18T00:24:11;17.33;;;9.93;;
14241;SDS011;7205;50.864;12.766;2022-12-18T00:26:38;16.53;;;9.40;;
14241;SDS011;7205;50.864;12.766;2022-12-18T00:29:06;18.43;;;10.03;;
14241;SDS011;7205;50.864;12.766;2022-12-18T00:31:37;13.97;;;8.87;;
14241;SDS011;7205;50.864;12.766;2022-12-18T00:34:04;15.30;;;9.23;;
14241;SDS011;7205;50.864;12.766;2022-12-18T00:36:32;15.53;;;8.63;;
14241;SDS011;7205;50.864;12.766;2022-12-18T00:39:00;18.03;;;9.47;;
14241;SDS011;7205;50.864;12.766;2022-12-18T00:41:29;16.83;;;9.27;;
14241;SDS011;7205;50.864;12.766;2022-12-18T00:44:14;18.10;;;10.00;;
14241;SDS011;7205;50.864;12.766;2022-12-18T00:46:43;16.57;;;9.33;;
14241;SDS011;7205;50.864;12.766;2022-12-18T00:49:11;16.27;;;9.27;;
14241;SDS011;7205;50.864;12.766;2022-12-18T00:51:38;13.03;;;9.33;;
14241;SDS011;7205;50.864;12.766;2022-12-18T00:54:05;20.90;;;10.67;;
14241;SDS011;7205;50.864;12.766;2022-12-18T00:56:32;16.20;;;10.20;;
14241;SDS011;7205;50.864;12.766;2022-12-18T00:58:58;19.13;;;10.17;;
14241;SDS011;7205;50.864;12.766;2022-12-18T01:01:25;16.63;;;10.77;;
14241;SDS011;7205;50.864;12.766;2022-12-18T01:03:53;17.30;;;10.27;;
14241;SDS011;7205;50.864;12.766;2022-12-18T01:06:23;20.27;;;10.80;;
14241;SDS011;7205;50.864;12.766;2022-12-18T01:08:50;17.43;;;10.70;;
14241;SDS011;7205;50.864;12.766;2022-12-18T01:11:17;17.43;;;10.87;;
14241;SDS011;7205;50.864;12.766;2022-12-18T01:13:45;19.03;;;10.77;;
14241;SDS011;7205;50.864;12.766;2022-12-18T01:16:12;15.63;;;10.40;;
14241;SDS011;7205;50.864;12.766;2022-12-18T01:18:39;17.03;;;10.00;;
14241;SDS011;7205;50.864;12.766;2022-12-18T01:21:08;17.40;;;10.23;;
14241;SDS011;7205;50.864;12.766;2022-12-18T01:23:36;17.33;;;10.03;;
14241;SDS011;7205;50.864;12.766;2022-12-18T01:26:06;18.47;;;9.83;;
14241;SDS011;7205;50.864;12.766;2022-12-18T01:28:34;16.07;;;9.83;;
14241;SDS011;7205;50.864;12.766;2022-12-18T01:31:15;16.03;;;9.03;;
14241;SDS011;7205;50.864;12.766;2022-12-18T01:33:43;19.27;;;10.33;;
14241;SDS011;7205;50.864;12.766;2022-12-18T01:36:20;12.60;;;7.87;;
14241;SDS011;7205;50.864;12.766;2022-12-18T01:38:48;12.37;;;8.37;;
14241;SDS011;7205;50.864;12.766;2022-12-18T01:41:17;15.87;;;9.60;;
14241;SDS011;7205;50.864;12.766;2022-12-18T01:43:50;16.13;;;9.43;;
14241;SDS011;7205;50.864;12.766;2022-12-18T01:46:20;17.40;;;10.17;;
14241;SDS011;7205;50.864;12.766;2022-12-18T01:48:52;16.10;;;9.80;;
14241;SDS011;7205;50.864;12.766;2022-12-18T01:51:22;14.83;;;9.67;;
14241;SDS011;7205;50.864;12.766;2022-12-18T01:53:50;15.13;;;10.17;;
14241;SDS011;7205;50.864;12.766;2022-12-18T01:56:18;18.00;;;9.60;;
14241;SDS011;7205;50.864;12.766;2022-12-18T01:58:50;18.10;;;9.97;;
14241;SDS011;7205;50.864;12.766;2022-12-18T02:01:22;17.83;;;10.27;;
14241;SDS011;7205;50.864;12.766;2022-12-18T02:03:50;15.10;;;9.70;;
14241;SDS011;7205;50.864;12.766;2022-12-18T02:06:19;16.40;;;10.30;;
14241;SDS011;7205;50.864;12.766;2022-12-18T02:08:56;14.07;;;9.20;;
14241;SDS011;7205;50.864;12.766;2022-12-18T02:11:32;11.13;;;6.87;;
14241;SDS011;7205;50.864;12.766;2022-12-18T02:14:12;16.27;;;9.70;;
14241;SDS011;7205;50.864;12.766;2022-12-18T02:16:49;15.47;;;8.43;;
14241;SDS011;7205;50.864;12.766;2022-12-18T02:19:27;14.40;;;7.97;;
14241;SDS011;7205;50.864;12.766;2022-12-18T02:22:11;12.90;;;7.63;;
14241;SDS011;7205;50.864;12.766;2022-12-18T02:24:51;14.17;;;8.00;;
14241;SDS011;7205;50.864;12.766;2022-12-18T02:27:27;11.43;;;7.63;;
14241;SDS011;7205;50.864;12.766;2022-12-18T02:29:58;15.60;;;8.43;;
14241;SDS011;7205;50.864;12.766;2022-12-18T02:32:28;13.03;;;7.97;;
14241;SDS011;7205;50.864;12.766;2022-12-18T02:34:59;10.90;;;7.57;;
14241;SDS011;7205;50.864;12.766;2022-12-18T02:37:34;12.70;;;8.00;;
14241;SDS011;7205;50.864;12.766;2022-12-18T02:40:06;11.57;;;7.40;;
14241;SDS011;7205;50.864;12.766;2022-12-18T02:42:37;9.63;;;6.67;;
14241;SDS011;7205;50.864;12.766;2022-12-18T02:45:07;13.20;;;7.53;;
14241;SDS011;7205;50.864;12.766;2022-12-18T02:47:36;12.17;;;7.43;;
14241;SDS011;7205;50.864;12.766;2022-12-18T02:50:07;8.90;;;5.63;;
14241;SDS011;7205;50.864;12.766;2022-12-18T02:52:45;10.50;;;6.20;;
14241;SDS011;7205;50.864;12.766;2022-12-18T02:55:23;9.23;;;5.90;;
14241;SDS011;7205;50.864;12.766;2022-12-18T02:58:05;11.17;;;6.87;;
14241;SDS011;7205;50.864;12.766;2022-12-18T03:00:41;10.57;;;6.90;;
14241;SDS011;7205;50.864;12.766;2022-12-18T03:03:16;8.17;;;5.53;;
14241;SDS011;7205;50.864;12.766;2022-12-18T03:05:51;6.57;;;5.00;;
14241;SDS011;7205;50.864;12.766;2022-12-18T03:08:22;6.90;;;4.73;;
14241;SDS011;7205;50.864;12.766;2022-12-18T03:10:55;6.17;;;4.73;;
14241;SDS011;7205;50.864;12.766;2022-12-18T03:13:30;7.43;;;5.33;;
14241;SDS011;7205;50.864;12.766;2022-12-18T03:16:00;6.43;;;4.40;;
14241;SDS011;7205;50.864;12.766;2022-12-18T03:18:33;5.83;;;4.43;;
14241;SDS011;7205;50.864;12.766;2022-12-18T03:21:06;7.53;;;4.73;;
14241;SDS011;7205;50.864;12.766;2022-12-18T03:23:39;10.80;;;5.10;;
14241;SDS011;7205;50.864;12.766;2022-12-18T03:26:10;8.67;;;5.97;;
14241;SDS011;7205;50.864;12.766;2022-12-18T03:28:45;10.43;;;6.27;;
14241;SDS011;7205;50.864;12.766;2022-12-18T03:31:17;9.33;;;6.20;;
14241;SDS011;7205;50.864;12.766;2022-12-18T03:33:51;8.70;;;6.00;;
14241;SDS011;7205;50.864;12.766;2022-12-18T03:36:23;12.23;;;7.13;;
14241;SDS011;7205;50.864;12.766;2022-12-18T03:38:51;12.73;;;7.13;;
14241;SDS011;7205;50.864;12.766;2022-12-18T03:41:23;12.93;;;7.63;;
14241;SDS011;7205;50.864;12.766;2022-12-18T03:44:26;12.27;;;8.13;;
14241;SDS011;7205;50.864;12.766;2022-12-18T03:47:04;13.80;;;7.97;;
14241;SDS011;7205;50.864;12.766;2022-12-18T03:49:38;11.60;;;8.20;;
14241;SDS011;7205;50.864;12.766;2022-12-18T03:52:22;16.10;;;8.73;;
14241;SDS011;7205;50.864;12.766;2022-12-18T03:54:54;13.43;;;7.57;;
14241;SDS011;7205;50.864;12.766;2022-12-18T03:57:22;12.00;;;7.83;;
14241;SDS011;7205;50.864;12.766;2022-12-18T04:00:03;10.07;;;6.53;;
14241;SDS011;7205;50.864;12.766;2022-12-18T04:02:39;12.13;;;6.83;;
14241;SDS011;7205;50.864;12.766;2022-12-18T04:05:12;10.43;;;5.93;;
14241;SDS011;7205;50.864;12.766;2022-12-18T04:07:42;10.10;;;5.80;;
14241;SDS011;7205;50.864;12.766;2022-12-18T04:10:12;9.00;;;6.20;;
14241;SDS011;7205;50.864;12.766;2022-12-18T04:12:42;10.43;;;6.10;;
14241;SDS011;7205;50.864;12.766;2022-12-18T04:15:12;9.20;;;6.00;;
14241;SDS011;7205;50.864;12.766;2022-12-18T04:17:42;10.50;;;7.03;;
14241;SDS011;7205;50.864;12.766;2022-12-18T04:20:16;10.90;;;6.50;;
14241;SDS011;7205;50.864;12.766;2022-12-18T04:22:47;9.33;;;6.37;;
14241;SDS011;7205;50.864;12.766;2022-12-18T04:25:14;11.13;;;6.80;;
14241;SDS011;7205;50.864;12.766;2022-12-18T04:27:56;14.90;;;7.77;;
14241;SDS011;7205;50.864;12.766;2022-12-18T04:30:24;23.87;;;11.00;;
14241;SDS011;7205;50.864;12.766;2022-12-18T04:32:51;25.77;;;12.33;;
14241;SDS011;7205;50.864;12.766;2022-12-18T04:35:20;34.70;;;14.60;;
14241;SDS011;7205;50.864;12.766;2022-12-18T04:37:47;39.57;;;19.00;;
14241;SDS011;7205;50.864;12.766;2022-12-18T04:40:14;42.97;;;19.10;;
14241;SDS011;7205;50.864;12.766;2022-12-18T04:42:44;31.90;;;15.97;;
14241;SDS011;7205;50.864;12.766;2022-12-18T04:45:11;24.77;;;11.70;;
14241;SDS011;7205;50.864;12.766;2022-12-18T04:47:39;14.57;;;8.00;;
14241;SDS011;7205;50.864;12.766;2022-12-18T04:50:06;14.77;;;7.80;;
14241;SDS011;7205;50.864;12.766;2022-12-18T04:52:34;15.53;;;7.50;;
14241;SDS011;7205;50.864;12.766;2022-12-18T04:55:01;14.37;;;8.20;;
14241;SDS011;7205;50.864;12.766;2022-12-18T04:57:29;13.83;;;7.77;;
14241;SDS011;7205;50.864;12.766;2022-12-18T04:59:56;11.90;;;7.40;;
14241;SDS011;7205;50.864;12.766;2022-12-18T05:02:22;9.97;;;6.70;;
14241;SDS011;7205;50.864;12.766;2022-12-18T05:04:52;11.47;;;6.47;;
14241;SDS011;7205;50.864;12.766;2022-12-18T05:07:19;9.30;;;6.10;;
14241;SDS011;7205;50.864;12.766;2022-12-18T05:09:45;7.77;;;5.13;;
14241;SDS011;7205;50.864;12.766;2022-12-18T05:12:12;9.73;;;6.43;;
14241;SDS011;7205;50.864;12.766;2022-12-18T05:14:39;9.43;;;6.57;;
14241;SDS011;7205;50.864;12.766;2022-12-18T05:17:09;9.60;;;6.40;;
14241;SDS011;7205;50.864;12.766;2022-12-18T05:19:37;8.93;;;5.70;;
14241;SDS011;7205;50.864;12.766;2022-12-18T05:22:05;8.50;;;5.53;;
14241;SDS011;7205;50.864;12.766;2022-12-18T05:24:33;6.40;;;4.30;;
14241;SDS011;7205;50.864;12.766;2022-12-18T05:27:00;6.00;;;4.53;;
14241;SDS011;7205;50.864;12.766;2022-12-18T05:29:27;6.13;;;4.80;;
14241;SDS011;7205;50.864;12.766;2022-12-18T05:31:54;6.90;;;4.73;;
14241;SDS011;7205;50.864;12.766;2022-12-18T05:34:21;5.00;;;4.43;;
14241;SDS011;7205;50.864;12.766;2022-12-18T05:36:47;6.13;;;4.97;;
14241;SDS011;7205;50.864;12.766;2022-12-18T05:39:16;7.80;;;5.13;;
14241;SDS011;7205;50.864;12.766;2022-12-18T05:41:42;6.50;;;5.13;;
14241;SDS011;7205;50.864;12.766;2022-12-18T05:44:09;5.73;;;4.33;;
14241;SDS011;7205;50.864;12.766;2022-12-18T05:46:36;5.90;;;4.63;;
14241;SDS011;7205;50.864;12.766;2022-12-18T05:49:05;6.33;;;5.17;;
14241;SDS011;7205;50.864;12.766;2022-12-18T05:51:32;6.37;;;4.27;;
14241;SDS011;7205;50.864;12.766;2022-12-18T05:53:59;5.70;;;4.70;;
14241;SDS011;7205;50.864;12.766;2022-12-18T05:56:27;8.20;;;5.20;;
14241;SDS011;7205;50.864;12.766;2022-12-18T05:58:54;6.90;;;4.90;;
14241;SDS011;7205;50.864;12.766;2022-12-18T06:01:23;6.30;;;4.43;;
14241;SDS011;7205;50.864;12.766;2022-12-18T06:03:51;5.60;;;4.33;;
14241;SDS011;7205;50.864;12.766;2022-12-18T06:06:19;7.50;;;5.10;;
14241;SDS011;7205;50.864;12.766;2022-12-18T06:08:51;6.03;;;4.70;;
14241;SDS011;7205;50.864;12.766;2022-12-18T06:11:19;13.10;;;4.63;;
14241;SDS011;7205;50.864;12.766;2022-12-18T06:13:50;5.47;;;3.97;;
14241;SDS011;7205;50.864;12.766;2022-12-18T06:16:18;6.13;;;3.90;;
14241;SDS011;7205;50.864;12.766;2022-12-18T06:18:45;6.67;;;4.37;;
14241;SDS011;7205;50.864;12.766;2022-12-18T06:21:12;8.30;;;3.93;;
14241;SDS011;7205;50.864;12.766;2022-12-18T06:23:39;6.23;;;5.00;;
14241;SDS011;7205;50.864;12.766;2022-12-18T06:26:06;7.07;;;4.63;;
14241;SDS011;7205;50.864;12.766;2022-12-18T06:28:33;5.33;;;4.67;;
14241;SDS011;7205;50.864;12.766;2022-12-18T06:31:01;6.00;;;4.90;;
14241;SDS011;7205;50.864;12.766;2022-12-18T06:33:28;6.70;;;4.73;;
14241;SDS011;7205;50.864;12.766;2022-12-18T06:35:59;7.40;;;4.63;;
14241;SDS011;7205;50.864;12.766;2022-12-18T06:38:27;5.60;;;3.67;;
14241;SDS011;7205;50.864;12.766;2022-12-18T06:40:53;5.03;;;4.07;;
14241;SDS011;7205;50.864;12.766;2022-12-18T06:43:20;6.37;;;4.27;;
14241;SDS011;7205;50.864;12.766;2022-12-18T06:45:47;6.17;;;4.00;;
14241;SDS011;7205;50.864;12.766;2022-12-18T06:48:19;5.83;;;4.27;;
14241;SDS011;7205;50.864;12.766;2022-12-18T06:50:45;7.83;;;4.37;;
14241;SDS011;7205;50.864;12.766;2022-12-18T06:53:13;6.90;;;4.03;;
14241;SDS011;7205;50.864;12.766;2022-12-18T06:55:40;6.33;;;4.60;;
14241;SDS011;7205;50.864;12.766;2022-12-18T06:58:06;5.37;;;3.87;;
14241;SDS011;7205;50.864;12.766;2022-12-18T07:00:33;4.33;;;3.93;;
14241;SDS011;7205;50.864;12.766;2022-12-18T07:03:01;5.77;;;3.93;;
14241;SDS011;7205;50.864;12.766;2022-12-18T07:05:29;7.77;;;4.10;;
14241;SDS011;7205;50.864;12.766;2022-12-18T07:07:55;6.23;;;4.53;;
14241;SDS011;7205;50.864;12.766;2022-12-18T07:10:22;7.70;;;4.50;;
14241;SDS011;7205;50.864;12.766;2022-12-18T07:12:49;4.77;;;3.87;;
14241;SDS011;7205;50.864;12.766;2022-12-18T07:15:16;5.70;;;4.33;;
14241;SDS011;7205;50.864;12.766;2022-12-18T07:17:43;6.57;;;4.37;;
14241;SDS011;7205;50.864;12.766;2022-12-18T07:20:10;6.77;;;4.53;;
14241;SDS011;7205;50.864;12.766;2022-12-18T07:22:38;9.17;;;5.40;;
14241;SDS011;7205;50.864;12.766;2022-12-18T07:25:06;5.23;;;3.90;;
14241;SDS011;7205;50.864;12.766;2022-12-18T07:27:33;6.50;;;4.17;;
14241;SDS011;7205;50.864;12.766;2022-12-18T07:30:04;6.40;;;3.97;;
14241;SDS011;7205;50.864;12.766;2022-12-18T07:32:31;6.27;;;4.40;;
14241;SDS011;7205;50.864;12.766;2022-12-18T07:34:58;7.57;;;5.27;;
14241;SDS011;7205;50.864;12.766;2022-12-18T07:37:25;8.37;;;4.87;;
14241;SDS011;7205;50.864;12.766;2022-12-18T07:39:53;6.60;;;4.70;;
14241;SDS011;7205;50.864;12.766;2022-12-18T07:42:20;8.57;;;5.43;;
14241;SDS011;7205;50.864;12.766;2022-12-18T07:45:00;8.30;;;5.50;;
14241;SDS011;7205;50.864;12.766;2022-12-18T07:47:27;6.80;;;4.97;;
14241;SDS011;7205;50.864;12.766;2022-12-18T07:49:58;9.43;;;5.60;;
14241;SDS011;7205;50.864;12.766;2022-12-18T07:52:25;8.47;;;5.20;;
14241;SDS011;7205;50.864;12.766;2022-12-18T07:54:54;8.17;;;5.20;;
14241;SDS011;7205;50.864;12.766;2022-12-18T07:57:23;6.53;;;4.83;;
14241;SDS011;7205;50.864;12.766;2022-12-18T07:59:50;6.50;;;4.27;;
14241;SDS011;7205;50.864;12.766;2022-12-18T08:02:17;6.67;;;5.60;;
14241;SDS011;7205;50.864;12.766;2022-12-18T08:04:46;6.37;;;4.80;;
14241;SDS011;7205;50.864;12.766;2022-12-18T08:07:14;6.33;;;4.47;;
14241;SDS011;7205;50.864;12.766;2022-12-18T08:09:41;5.83;;;4.07;;
14241;SDS011;7205;50.864;12.766;2022-12-18T08:12:11;4.73;;;3.80;;
14241;SDS011;7205;50.864;12.766;2022-12-18T08:14:38;8.43;;;4.73;;
14241;SDS011;7205;50.864;12.766;2022-12-18T08:17:05;4.53;;;3.97;;
14241;SDS011;7205;50.864;12.766;2022-12-18T08:19:33;4.17;;;3.53;;
14241;SDS011;7205;50.864;12.766;2022-12-18T08:22:02;6.17;;;3.97;;
14241;SDS011;7205;50.864;12.766;2022-12-18T08:24:29;4.90;;;3.20;;
14241;SDS011;7205;50.864;12.766;2022-12-18T08:26:56;4.03;;;3.27;;
14241;SDS011;7205;50.864;12.766;2022-12-18T08:29:24;7.30;;;4.10;;
14241;SDS011;7205;50.864;12.766;2022-12-18T08:31:54;5.57;;;4.30;;
14241;SDS011;7205;50.864;12.766;2022-12-18T08:34:21;4.60;;;4.13;;
14241;SDS011;7205;50.864;12.766;2022-12-18T08:36:50;4.53;;;4.13;;
14241;SDS011;7205;50.864;12.766;2022-12-18T08:39:17;4.97;;;4.03;;
14241;SDS011;7205;50.864;12.766;2022-12-18T08:41:44;4.60;;;4.10;;
14241;SDS011;7205;50.864;12.766;2022-12-18T08:44:32;4.80;;;4.13;;
14241;SDS011;7205;50.864;12.766;2022-12-18T08:47:04;7.33;;;4.07;;
14241;SDS011;7205;50.864;12.766;2022-12-18T08:49:32;5.67;;;4.87;;
14241;SDS011;7205;50.864;12.766;2022-12-18T08:51:59;6.20;;;4.97;;
14241;SDS011;7205;50.864;12.766;2022-12-18T08:54:28;7.17;;;5.07;;
14241;SDS011;7205;50.864;12.766;2022-12-18T08:56:55;5.53;;;4.20;;
14241;SDS011;7205;50.864;12.766;2022-12-18T08:59:22;4.83;;;4.23;;
14241;SDS011;7205;50.864;12.766;2022-12-18T09:01:52;5.73;;;3.90;;
14241;SDS011;7205;50.864;12.766;2022-12-18T09:04:20;5.03;;;4.37;;
14241;SDS011;7205;50.864;12.766;2022-12-18T09:06:47;4.53;;;3.53;;
14241;SDS011;7205;50.864;12.766;2022-12-18T09:09:13;7.70;;;5.20;;
14241;SDS011;7205;50.864;12.766;2022-12-18T09:11:40;6.13;;;4.43;;
14241;SDS011;7205;50.864;12.766;2022-12-18T09:14:08;4.40;;;4.00;;
14241;SDS011;7205;50.864;12.766;2022-12-18T09:16:35;4.17;;;3.77;;
14241;SDS011;7205;50.864;12.766;2022-12-18T09:19:04;4.83;;;3.47;;
14241;SDS011;7205;50.864;12.766;2022-12-18T09:21:32;4.70;;;3.90;;
14241;SDS011;7205;50.864;12.766;2022-12-18T09:24:03;6.50;;;4.23;;
14241;SDS011;7205;50.864;12.766;2022-12-18T09:26:30;5.70;;;4.13;;
14241;SDS011;7205;50.864;12.766;2022-12-18T09:28:57;4.93;;;4.30;;
14241;SDS011;7205;50.864;12.766;2022-12-18T09:31:24;5.67;;;5.03;;
14241;SDS011;7205;50.864;12.766;2022-12-18T09:33:54;5.70;;;4.97;;
14241;SDS011;7205;50.864;12.766;2022-12-18T09:36:23;5.47;;;4.50;;
14241;SDS011;7205;50.864;12.766;2022-12-18T09:38:50;5.80;;;4.93;;
14241;SDS011;7205;50.864;12.766;2022-12-18T09:41:31;7.07;;;5.47;;
14241;SDS011;7205;50.864;12.766;2022-12-18T09:44:05;5.40;;;4.50;;
14241;SDS011;7205;50.864;12.766;2022-12-18T09:46:43;8.03;;;5.23;;
14241;SDS011;7205;50.864;12.766;2022-12-18T09:49:14;6.67;;;5.20;;
14241;SDS011;7205;50.864;12.766;2022-12-18T09:51:45;8.80;;;7.20;;
14241;SDS011;7205;50.864;12.766;2022-12-18T09:54:16;10.07;;;5.70;;
14241;SDS011;7205;50.864;12.766;2022-12-18T09:56:48;7.00;;;5.27;;
14241;SDS011;7205;50.864;12.766;2022-12-18T09:59:20;7.77;;;5.53;;
14241;SDS011;7205;50.864;12.766;2022-12-18T10:01:50;8.03;;;5.07;;
14241;SDS011;7205;50.864;12.766;2022-12-18T10:04:17;9.73;;;5.40;;
14241;SDS011;7205;50.864;12.766;2022-12-18T10:06:47;6.43;;;4.63;;
14241;SDS011;7205;50.864;12.766;2022-12-18T10:09:22;4.50;;;4.10;;
14241;SDS011;7205;50.864;12.766;2022-12-18T10:11:56;6.90;;;4.80;;
14241;SDS011;7205;50.864;12.766;2022-12-18T10:14:34;7.03;;;4.30;;
14241;SDS011;7205;50.864;12.766;2022-12-18T10:17:12;5.70;;;4.60;;
14241;SDS011;7205;50.864;12.766;2022-12-18T10:19:46;4.37;;;3.97;;
14241;SDS011;7205;50.864;12.766;2022-12-18T10:22:21;4.00;;;3.60;;
14241;SDS011;7205;50.864;12.766;2022-12-18T10:24:58;4.13;;;3.70;;
14241;SDS011;7205;50.864;12.766;2022-12-18T10:27:28;3.60;;;3.27;;
14241;SDS011;7205;50.864;12.766;2022-12-18T10:29:55;3.70;;;3.37;;
14241;SDS011;7205;50.864;12.766;2022-12-18T10:32:24;7.87;;;3.90;;
14241;SDS011;7205;50.864;12.766;2022-12-18T10:34:53;4.93;;;3.50;;
14241;SDS011;7205;50.864;12.766;2022-12-18T10:37:23;4.03;;;3.03;;
14241;SDS011;7205;50.864;12.766;2022-12-18T10:40:04;3.80;;;3.20;;
14241;SDS011;7205;50.864;12.766;2022-12-18T10:42:34;4.30;;;3.47;;
14241;SDS011;7205;50.864;12.766;2022-12-18T10:45:08;4.83;;;3.97;;
14241;SDS011;7205;50.864;12.766;2022-12-18T10:47:41;5.70;;;4.43;;
14241;SDS011;7205;50.864;12.766;2022-12-18T10:50:17;4.93;;;4.23;;
14241;SDS011;7205;50.864;12.766;2022-12-18T10:52:53;5.60;;;4.00;;
14241;SDS011;7205;50.864;12.766;2022-12-18T10:55:21;5.60;;;4.50;;
14241;SDS011;7205;50.864;12.766;2022-12-18T10:57:48;8.67;;;5.63;;
14241;SDS011;7205;50.864;12.766;2022-12-18T11:00:23;7.17;;;5.37;;
14241;SDS011;7205;50.864;12.766;2022-12-18T11:02:52;9.13;;;6.00;;
14241;SDS011;7205;50.864;12.766;2022-12-18T11:05:25;7.17;;;5.93;;
14241;SDS011;7205;50.864;12.766;2022-12-18T11:07:55;7.20;;;5.37;;
14241;SDS011;7205;50.864;12.766;2022-12-18T11:10:25;8.97;;;5.23;;
14241;SDS011;7205;50.864;12.766;2022-12-18T11:12:55;7.57;;;5.20;;
14241;SDS011;7205;50.864;12.766;2022-12-18T11:15:23;6.53;;;5.20;;
14241;SDS011;7205;50.864;12.766;2022-12-18T11:17:54;5.63;;;4.93;;
14241;SDS011;7205;50.864;12.766;2022-12-18T11:20:27;7.20;;;5.67;;
14241;SDS011;7205;50.864;12.766;2022-12-18T11:23:10;6.73;;;5.50;;
14241;SDS011;7205;50.864;12.766;2022-12-18T11:25:39;7.07;;;5.43;;
14241;SDS011;7205;50.864;12.766;2022-12-18T11:28:25;6.50;;;5.30;;
14241;SDS011;7205;50.864;12.766;2022-12-18T11:31:12;8.70;;;6.23;;
14241;SDS011;7205;50.864;12.766;2022-12-18T11:33:52;6.80;;;5.60;;
14241;SDS011;7205;50.864;12.766;2022-12-18T11:36:22;9.30;;;5.80;;
14241;SDS011;7205;50.864;12.766;2022-12-18T11:38:53;7.33;;;5.93;;
14241;SDS011;7205;50.864;12.766;2022-12-18T11:41:26;9.93;;;6.07;;
14241;SDS011;7205;50.864;12.766;2022-12-18T11:44:11;8.47;;;6.17;;
14241;SDS011;7205;50.864;12.766;2022-12-18T11:46:43;6.90;;;5.47;;
14241;SDS011;7205;50.864;12.766;2022-12-18T11:49:21;6.93;;;5.57;;
14241;SDS011;7205;50.864;12.766;2022-12-18T11:51:55;8.50;;;5.93;;
14241;SDS011;7205;50.864;12.766;2022-12-18T11:54:31;7.60;;;5.63;;
14241;SDS011;7205;50.864;12.766;2022-12-18T11:56:59;7.80;;;5.67;;
14241;SDS011;7205;50.864;12.766;2022-12-18T11:59:35;9.50;;;5.93;;
14241;SDS011;7205;50.864;12.766;2022-12-18T12:02:17;7.37;;;5.90;;
14241;SDS011;7205;50.864;12.766;2022-12-18T12:05:01;7.37;;;5.87;;
14241;SDS011;7205;50.864;12.766;2022-12-18T12:07:56;7.33;;;5.77;;
14241;SDS011;7205;50.864;12.766;2022-12-18T12:10:42;7.63;;;5.50;;
14241;SDS011;7205;50.864;12.766;2022-12-18T12:13:25;10.27;;;6.07;;
14241;SDS011;7205;50.864;12.766;2022-12-18T12:16:16;7.30;;;5.47;;
14241;SDS011;7205;50.864;12.766;2022-12-18T12:21:46;9.07;;;6.13;;
14241;SDS011;7205;50.864;12.766;2022-12-18T12:24:22;7.20;;;5.40;;
14241;SDS011;7205;50.864;12.766;2022-12-18T12:27:03;5.87;;;5.20;;
14241;SDS011;7205;50.864;12.766;2022-12-18T12:29:41;6.83;;;5.57;;
14241;SDS011;7205;50.864;12.766;2022-12-18T12:32:19;9.37;;;5.80;;
14241;SDS011;7205;50.864;12.766;2022-12-18T12:34:55;7.27;;;5.30;;
14241;SDS011;7205;50.864;12.766;2022-12-18T12:41:44;7.97;;;5.63;;
14241;SDS011;7205;50.864;12.766;2022-12-18T12:44:42;8.10;;;5.63;;
14241;SDS011;7205;50.864;12.766;2022-12-18T12:47:13;6.07;;;5.30;;
14241;SDS011;7205;50.864;12.766;2022-12-18T12:49:45;8.07;;;5.43;;
14241;SDS011;7205;50.864;12.766;2022-12-18T12:52:15;6.30;;;4.90;;
14241;SDS011;7205;50.864;12.766;2022-12-18T12:54:50;7.20;;;5.50;;
14241;SDS011;7205;50.864;12.766;2022-12-18T12:57:19;11.00;;;6.03;;
14241;SDS011;7205;50.864;12.766;2022-12-18T13:00:07;7.67;;;5.67;;
14241;SDS011;7205;50.864;12.766;2022-12-18T13:02:39;5.70;;;4.90;;
14241;SDS011;7205;50.864;12.766;2022-12-18T13:05:18;6.87;;;4.93;;
14241;SDS011;7205;50.864;12.766;2022-12-18T13:08:21;7.53;;;5.23;;
14241;SDS011;7205;50.864;12.766;2022-12-18T13:10:56;6.63;;;4.67;;
14241;SDS011;7205;50.864;12.766;2022-12-18T13:13:49;6.70;;;4.70;;
14241;SDS011;7205;50.864;12.766;2022-12-18T13:16:43;7.43;;;4.83;;
14241;SDS011;7205;50.864;12.766;2022-12-18T13:19:21;5.57;;;4.37;;
14241;SDS011;7205;50.864;12.766;2022-12-18T13:21:57;6.10;;;5.00;;
14241;SDS011;7205;50.864;12.766;2022-12-18T13:24:30;4.77;;;4.30;;
14241;SDS011;7205;50.864;12.766;2022-12-18T13:31:16;5.60;;;4.23;;
14241;SDS011;7205;50.864;12.766;2022-12-18T13:34:42;6.67;;;4.20;;
14241;SDS011;7205;50.864;12.766;2022-12-18T13:37:40;4.73;;;4.03;;
14241;SDS011;7205;50.864;12.766;2022-12-18T13:44:42;5.67;;;4.17;;
14241;SDS011;7205;50.864;12.766;2022-12-18T13:46:48;4.70;;;3.90;;
14241;SDS011;7205;50.864;12.766;2022-12-18T13:49:20;4.53;;;3.93;;
14241;SDS011;7205;50.864;12.766;2022-12-18T13:51:54;5.27;;;4.10;;
14241;SDS011;7205;50.864;12.766;2022-12-18T13:54:23;4.57;;;3.93;;
14241;SDS011;7205;50.864;12.766;2022-12-18T13:56:54;5.43;;;4.20;;
14241;SDS011;7205;50.864;12.766;2022-12-18T13:59:23;6.00;;;4.13;;
14241;SDS011;7205;50.864;12.766;2022-12-18T14:01:52;8.97;;;4.57;;
14241;SDS011;7205;50.864;12.766;2022-12-18T14:04:22;5.30;;;3.97;;
14241;SDS011;7205;50.864;12.766;2022-12-18T14:07:01;5.77;;;4.07;;
14241;SDS011;7205;50.864;12.766;2022-12-18T14:09:39;6.17;;;4.53;;
14241;SDS011;7205;50.864;12.766;2022-12-18T14:12:20;5.33;;;4.27;;
14241;SDS011;7205;50.864;12.766;2022-12-18T14:15:20;7.33;;;4.80;;
14241;SDS011;7205;50.864;12.766;2022-12-18T14:17:59;7.13;;;4.40;;
14241;SDS011;7205;50.864;12.766;2022-12-18T14:20:46;6.47;;;4.20;;
14241;SDS011;7205;50.864;12.766;2022-12-18T14:23:28;6.37;;;4.50;;
14241;SDS011;7205;50.864;12.766;2022-12-18T14:25:56;7.40;;;4.80;;
14241;SDS011;7205;50.864;12.766;2022-12-18T14:28:25;5.60;;;4.43;;
14241;SDS011;7205;50.864;12.766;2022-12-18T14:30:52;7.13;;;4.70;;
14241;SDS011;7205;50.864;12.766;2022-12-18T14:33:21;6.63;;;5.00;;
14241;SDS011;7205;50.864;12.766;2022-12-18T14:35:53;8.80;;;5.10;;
14241;SDS011;7205;50.864;12.766;2022-12-18T14:38:25;8.47;;;5.47;;
14241;SDS011;7205;50.864;12.766;2022-12-18T14:40:58;8.60;;;5.90;;
14241;SDS011;7205;50.864;12.766;2022-12-18T14:43:26;7.67;;;5.10;;
14241;SDS011;7205;50.864;12.766;2022-12-18T14:45:54;9.20;;;5.63;;
14241;SDS011;7205;50.864;12.766;2022-12-18T14:48:24;6.57;;;4.80;;
14241;SDS011;7205;50.864;12.766;2022-12-18T14:51:00;5.90;;;4.93;;
14241;SDS011;7205;50.864;12.766;2022-12-18T14:56:27;7.40;;;5.07;;
14241;SDS011;7205;50.864;12.766;2022-12-18T14:58:56;8.93;;;5.20;;
14241;SDS011;7205;50.864;12.766;2022-12-18T15:01:26;6.30;;;4.73;;
14241;SDS011;7205;50.864;12.766;2022-12-18T15:03:56;7.63;;;5.20;;
14241;SDS011;7205;50.864;12.766;2022-12-18T15:06:26;6.67;;;4.67;;
14241;SDS011;7205;50.864;12.766;2022-12-18T15:08:56;7.53;;;4.33;;
14241;SDS011;7205;50.864;12.766;2022-12-18T15:11:28;6.27;;;4.37;;
14241;SDS011;7205;50.864;12.766;2022-12-18T15:14:22;7.67;;;4.80;;
14241;SDS011;7205;50.864;12.766;2022-12-18T15:17:00;6.93;;;4.77;;
14241;SDS011;7205;50.864;12.766;2022-12-18T15:19:31;7.23;;;4.80;;
14241;SDS011;7205;50.864;12.766;2022-12-18T15:22:01;6.87;;;4.63;;
14241;SDS011;7205;50.864;12.766;2022-12-18T15:24:31;6.60;;;4.57;;
14241;SDS011;7205;50.864;12.766;2022-12-18T15:26:58;5.70;;;4.57;;
14241;SDS011;7205;50.864;12.766;2022-12-18T15:29:26;7.37;;;5.00;;